sensor_id;sensor_type;location;lat;lon;timestamp;P1;durP1;ratioP1;P2;durP2;ratioP2
22881;SDS011;11608;50.894;5.296;2022-08-21T00:02:28;24.67;;;22.77;;
22881;SDS011;11608;50.894;5.296;2022-08-21T00:04:54;23.55;;;21.65;;
22881;SDS011;11608;50.894;5.296;2022-08-21T00:07:21;24.55;;;22.83;;
22881;SDS011;11608;50.894;5.296;2022-08-21T00:09:47;23.50;;;21.33;;
22881;SDS011;11608;50.894;5.296;2022-08-21T00:12:13;24.73;;;22.63;;
22881;SDS011;11608;50.894;5.296;2022-08-21T00:14:39;24.02;;;22.33;;
22881;SDS011;11608;50.894;5.296;2022-08-21T00:17:05;23.95;;;22.27;;
22881;SDS011;11608;50.894;5.296;2022-08-21T00:19:31;24.67;;;22.33;;
22881;SDS011;11608;50.894;5.296;2022-08-21T00:21:57;24.92;;;22.42;;
22881;SDS011;11608;50.894;5.296;2022-08-21T00:24:24;25.25;;;23.17;;
22881;SDS011;11608;50.894;5.296;2022-08-21T00:26:50;24.20;;;22.27;;
22881;SDS011;11608;50.894;5.296;2022-08-21T00:29:16;24.60;;;22.70;;
22881;SDS011;11608;50.894;5.296;2022-08-21T00:31:42;23.55;;;22.05;;
22881;SDS011;11608;50.894;5.296;2022-08-21T00:34:09;24.17;;;22.25;;
22881;SDS011;11608;50.894;5.296;2022-08-21T00:36:35;23.60;;;21.70;;
22881;SDS011;11608;50.894;5.296;2022-08-21T00:39:02;23.75;;;21.85;;
22881;SDS011;11608;50.894;5.296;2022-08-21T00:41:29;24.17;;;22.35;;
22881;SDS011;11608;50.894;5.296;2022-08-21T00:43:55;23.15;;;21.45;;
22881;SDS011;11608;50.894;5.296;2022-08-21T00:46:22;24.05;;;22.40;;
22881;SDS011;11608;50.894;5.296;2022-08-21T00:48:48;24.75;;;22.95;;
22881;SDS011;11608;50.894;5.296;2022-08-21T00:51:22;24.65;;;22.75;;
22881;SDS011;11608;50.894;5.296;2022-08-21T00:53:55;23.80;;;22.17;;
22881;SDS011;11608;50.894;5.296;2022-08-21T00:56:21;23.80;;;22.17;;
22881;SDS011;11608;50.894;5.296;2022-08-21T00:58:48;23.27;;;21.55;;
22881;SDS011;11608;50.894;5.296;2022-08-21T01:01:14;24.88;;;22.83;;
22881;SDS011;11608;50.894;5.296;2022-08-21T01:03:40;23.92;;;22.23;;
22881;SDS011;11608;50.894;5.296;2022-08-21T01:06:06;23.50;;;22.00;;
22881;SDS011;11608;50.894;5.296;2022-08-21T01:08:33;24.67;;;22.95;;
22881;SDS011;11608;50.894;5.296;2022-08-21T01:11:00;24.30;;;22.50;;
22881;SDS011;11608;50.894;5.296;2022-08-21T01:13:27;24.67;;;22.95;;
22881;SDS011;11608;50.894;5.296;2022-08-21T01:15:55;24.23;;;22.42;;
22881;SDS011;11608;50.894;5.296;2022-08-21T01:18:22;24.83;;;23.23;;
22881;SDS011;11608;50.894;5.296;2022-08-21T01:21:02;24.30;;;22.58;;
22881;SDS011;11608;50.894;5.296;2022-08-21T01:23:28;24.10;;;22.38;;
22881;SDS011;11608;50.894;5.296;2022-08-21T01:25:54;25.33;;;23.20;;
22881;SDS011;11608;50.894;5.296;2022-08-21T01:28:21;23.40;;;21.80;;
22881;SDS011;11608;50.894;5.296;2022-08-21T01:30:47;24.73;;;22.70;;
22881;SDS011;11608;50.894;5.296;2022-08-21T01:33:14;22.77;;;21.27;;
22881;SDS011;11608;50.894;5.296;2022-08-21T01:35:40;23.70;;;21.80;;
22881;SDS011;11608;50.894;5.296;2022-08-21T01:38:06;23.50;;;21.45;;
22881;SDS011;11608;50.894;5.296;2022-08-21T01:40:32;23.00;;;21.50;;
22881;SDS011;11608;50.894;5.296;2022-08-21T01:42:58;24.00;;;22.20;;
22881;SDS011;11608;50.894;5.296;2022-08-21T01:45:24;23.02;;;21.38;;
22881;SDS011;11608;50.894;5.296;2022-08-21T01:47:51;23.05;;;21.33;;
22881;SDS011;11608;50.894;5.296;2022-08-21T01:50:18;23.23;;;21.50;;
22881;SDS011;11608;50.894;5.296;2022-08-21T01:52:45;23.10;;;21.50;;
22881;SDS011;11608;50.894;5.296;2022-08-21T01:55:12;23.25;;;21.45;;
22881;SDS011;11608;50.894;5.296;2022-08-21T01:57:39;23.52;;;21.73;;
22881;SDS011;11608;50.894;5.296;2022-08-21T02:00:07;22.13;;;20.73;;
22881;SDS011;11608;50.894;5.296;2022-08-21T02:02:33;23.58;;;21.88;;
22881;SDS011;11608;50.894;5.296;2022-08-21T02:04:59;22.67;;;21.08;;
22881;SDS011;11608;50.894;5.296;2022-08-21T02:07:26;23.42;;;21.73;;
22881;SDS011;11608;50.894;5.296;2022-08-21T02:09:52;23.33;;;21.67;;
22881;SDS011;11608;50.894;5.296;2022-08-21T02:12:18;23.67;;;21.85;;
22881;SDS011;11608;50.894;5.296;2022-08-21T02:14:44;23.70;;;21.83;;
22881;SDS011;11608;50.894;5.296;2022-08-21T02:17:10;23.90;;;22.17;;
22881;SDS011;11608;50.894;5.296;2022-08-21T02:19:36;24.23;;;22.40;;
22881;SDS011;11608;50.894;5.296;2022-08-21T02:22:03;23.83;;;22.00;;
22881;SDS011;11608;50.894;5.296;2022-08-21T02:24:29;23.92;;;22.13;;
22881;SDS011;11608;50.894;5.296;2022-08-21T02:26:55;23.70;;;22.00;;
22881;SDS011;11608;50.894;5.296;2022-08-21T02:29:21;25.20;;;22.83;;
22881;SDS011;11608;50.894;5.296;2022-08-21T02:31:47;24.65;;;22.70;;
22881;SDS011;11608;50.894;5.296;2022-08-21T02:34:13;24.13;;;22.30;;
22881;SDS011;11608;50.894;5.296;2022-08-21T02:36:39;24.52;;;22.45;;
22881;SDS011;11608;50.894;5.296;2022-08-21T02:39:05;24.08;;;22.17;;
22881;SDS011;11608;50.894;5.296;2022-08-21T02:41:31;23.98;;;22.17;;
22881;SDS011;11608;50.894;5.296;2022-08-21T02:43:57;23.60;;;21.77;;
22881;SDS011;11608;50.894;5.296;2022-08-21T02:46:23;23.63;;;21.50;;
22881;SDS011;11608;50.894;5.296;2022-08-21T02:48:49;23.10;;;21.40;;
22881;SDS011;11608;50.894;5.296;2022-08-21T02:51:17;23.38;;;21.63;;
22881;SDS011;11608;50.894;5.296;2022-08-21T02:53:43;22.88;;;21.27;;
22881;SDS011;11608;50.894;5.296;2022-08-21T02:56:10;23.58;;;21.77;;
22881;SDS011;11608;50.894;5.296;2022-08-21T02:58:41;22.88;;;21.17;;
22881;SDS011;11608;50.894;5.296;2022-08-21T03:01:08;23.67;;;22.02;;
22881;SDS011;11608;50.894;5.296;2022-08-21T03:03:35;23.00;;;21.20;;
22881;SDS011;11608;50.894;5.296;2022-08-21T03:06:01;23.80;;;21.85;;
22881;SDS011;11608;50.894;5.296;2022-08-21T03:08:28;24.17;;;22.38;;
22881;SDS011;11608;50.894;5.296;2022-08-21T03:10:54;24.27;;;22.60;;
22881;SDS011;11608;50.894;5.296;2022-08-21T03:13:20;24.15;;;22.05;;
22881;SDS011;11608;50.894;5.296;2022-08-21T03:15:46;23.85;;;22.10;;
22881;SDS011;11608;50.894;5.296;2022-08-21T03:18:13;23.83;;;21.98;;
22881;SDS011;11608;50.894;5.296;2022-08-21T03:20:40;23.45;;;21.65;;
22881;SDS011;11608;50.894;5.296;2022-08-21T03:23:07;23.80;;;21.98;;
22881;SDS011;11608;50.894;5.296;2022-08-21T03:25:33;23.63;;;21.85;;
22881;SDS011;11608;50.894;5.296;2022-08-21T03:28:00;24.20;;;22.30;;
22881;SDS011;11608;50.894;5.296;2022-08-21T03:30:26;24.42;;;22.63;;
22881;SDS011;11608;50.894;5.296;2022-08-21T03:32:52;23.77;;;21.77;;
22881;SDS011;11608;50.894;5.296;2022-08-21T03:35:18;24.92;;;22.88;;
22881;SDS011;11608;50.894;5.296;2022-08-21T03:37:45;23.67;;;21.83;;
22881;SDS011;11608;50.894;5.296;2022-08-21T03:40:12;24.17;;;22.10;;
22881;SDS011;11608;50.894;5.296;2022-08-21T03:42:38;23.75;;;21.90;;
22881;SDS011;11608;50.894;5.296;2022-08-21T03:45:05;23.85;;;21.98;;
22881;SDS011;11608;50.894;5.296;2022-08-21T03:47:31;22.95;;;21.35;;
22881;SDS011;11608;50.894;5.296;2022-08-21T03:49:57;23.40;;;21.60;;
22881;SDS011;11608;50.894;5.296;2022-08-21T03:52:24;23.33;;;21.40;;
22881;SDS011;11608;50.894;5.296;2022-08-21T03:54:50;24.05;;;22.20;;
22881;SDS011;11608;50.894;5.296;2022-08-21T03:57:16;24.73;;;22.85;;
22881;SDS011;11608;50.894;5.296;2022-08-21T03:59:43;23.42;;;21.83;;
22881;SDS011;11608;50.894;5.296;2022-08-21T04:02:09;23.35;;;21.73;;
22881;SDS011;11608;50.894;5.296;2022-08-21T04:04:36;22.98;;;21.27;;
22881;SDS011;11608;50.894;5.296;2022-08-21T04:07:02;23.70;;;21.70;;
22881;SDS011;11608;50.894;5.296;2022-08-21T04:09:28;25.27;;;22.92;;
22881;SDS011;11608;50.894;5.296;2022-08-21T04:11:55;26.02;;;23.70;;
22881;SDS011;11608;50.894;5.296;2022-08-21T04:14:21;23.73;;;21.95;;
22881;SDS011;11608;50.894;5.296;2022-08-21T04:16:47;24.85;;;22.85;;
22881;SDS011;11608;50.894;5.296;2022-08-21T04:19:13;25.30;;;23.35;;
22881;SDS011;11608;50.894;5.296;2022-08-21T04:21:40;24.83;;;22.92;;
22881;SDS011;11608;50.894;5.296;2022-08-21T04:24:07;23.65;;;21.95;;
22881;SDS011;11608;50.894;5.296;2022-08-21T04:26:34;24.00;;;22.30;;
22881;SDS011;11608;50.894;5.296;2022-08-21T04:29:00;23.10;;;21.40;;
22881;SDS011;11608;50.894;5.296;2022-08-21T04:31:26;24.25;;;22.27;;
22881;SDS011;11608;50.894;5.296;2022-08-21T04:33:53;25.17;;;23.30;;
22881;SDS011;11608;50.894;5.296;2022-08-21T04:36:19;24.77;;;22.75;;
22881;SDS011;11608;50.894;5.296;2022-08-21T04:38:46;23.02;;;21.42;;
22881;SDS011;11608;50.894;5.296;2022-08-21T04:41:12;24.98;;;22.80;;
22881;SDS011;11608;50.894;5.296;2022-08-21T04:43:38;23.65;;;21.70;;
22881;SDS011;11608;50.894;5.296;2022-08-21T04:46:04;23.70;;;21.90;;
22881;SDS011;11608;50.894;5.296;2022-08-21T04:48:30;24.13;;;22.17;;
22881;SDS011;11608;50.894;5.296;2022-08-21T04:56:03;23.38;;;21.30;;
22881;SDS011;11608;50.894;5.296;2022-08-21T04:58:30;23.23;;;21.30;;
22881;SDS011;11608;50.894;5.296;2022-08-21T05:00:58;22.83;;;21.10;;
22881;SDS011;11608;50.894;5.296;2022-08-21T05:03:25;24.65;;;22.58;;
22881;SDS011;11608;50.894;5.296;2022-08-21T05:05:52;23.85;;;22.15;;
22881;SDS011;11608;50.894;5.296;2022-08-21T05:08:19;24.95;;;22.77;;
22881;SDS011;11608;50.894;5.296;2022-08-21T05:10:46;24.23;;;22.38;;
22881;SDS011;11608;50.894;5.296;2022-08-21T05:13:12;25.23;;;22.88;;
22881;SDS011;11608;50.894;5.296;2022-08-21T05:15:39;24.92;;;22.75;;
22881;SDS011;11608;50.894;5.296;2022-08-21T05:18:06;25.52;;;23.35;;
22881;SDS011;11608;50.894;5.296;2022-08-21T05:20:33;24.38;;;22.08;;
22881;SDS011;11608;50.894;5.296;2022-08-21T05:23:06;23.83;;;21.98;;
22881;SDS011;11608;50.894;5.296;2022-08-21T05:25:32;24.80;;;22.55;;
22881;SDS011;11608;50.894;5.296;2022-08-21T05:27:58;24.80;;;22.65;;
22881;SDS011;11608;50.894;5.296;2022-08-21T05:30:24;25.27;;;23.13;;
22881;SDS011;11608;50.894;5.296;2022-08-21T05:32:55;24.30;;;22.27;;
22881;SDS011;11608;50.894;5.296;2022-08-21T05:35:21;24.02;;;22.00;;
22881;SDS011;11608;50.894;5.296;2022-08-21T05:37:47;23.90;;;21.88;;
22881;SDS011;11608;50.894;5.296;2022-08-21T05:40:13;23.20;;;21.17;;
22881;SDS011;11608;50.894;5.296;2022-08-21T05:42:39;23.58;;;21.65;;
22881;SDS011;11608;50.894;5.296;2022-08-21T05:45:05;23.65;;;21.80;;
22881;SDS011;11608;50.894;5.296;2022-08-21T05:47:32;24.27;;;22.27;;
22881;SDS011;11608;50.894;5.296;2022-08-21T05:49:58;25.02;;;23.02;;
22881;SDS011;11608;50.894;5.296;2022-08-21T05:52:24;23.77;;;21.67;;
22881;SDS011;11608;50.894;5.296;2022-08-21T05:54:50;23.67;;;21.67;;
22881;SDS011;11608;50.894;5.296;2022-08-21T05:57:18;23.77;;;21.60;;
22881;SDS011;11608;50.894;5.296;2022-08-21T05:59:44;23.42;;;21.17;;
22881;SDS011;11608;50.894;5.296;2022-08-21T06:02:10;22.60;;;20.75;;
22881;SDS011;11608;50.894;5.296;2022-08-21T06:04:39;23.00;;;21.00;;
22881;SDS011;11608;50.894;5.296;2022-08-21T06:07:06;22.98;;;21.00;;
22881;SDS011;11608;50.894;5.296;2022-08-21T06:09:33;23.25;;;21.30;;
22881;SDS011;11608;50.894;5.296;2022-08-21T06:12:03;23.40;;;21.52;;
22881;SDS011;11608;50.894;5.296;2022-08-21T06:14:29;23.13;;;21.20;;
22881;SDS011;11608;50.894;5.296;2022-08-21T06:17:00;21.95;;;20.15;;
22881;SDS011;11608;50.894;5.296;2022-08-21T06:19:26;22.58;;;20.77;;
22881;SDS011;11608;50.894;5.296;2022-08-21T06:21:53;22.80;;;20.60;;
22881;SDS011;11608;50.894;5.296;2022-08-21T06:24:19;21.95;;;20.05;;
22881;SDS011;11608;50.894;5.296;2022-08-21T06:26:45;21.63;;;19.80;;
22881;SDS011;11608;50.894;5.296;2022-08-21T06:29:12;22.85;;;20.83;;
22881;SDS011;11608;50.894;5.296;2022-08-21T06:31:41;21.70;;;20.00;;
22881;SDS011;11608;50.894;5.296;2022-08-21T06:34:07;21.33;;;19.63;;
22881;SDS011;11608;50.894;5.296;2022-08-21T06:36:33;22.58;;;20.75;;
22881;SDS011;11608;50.894;5.296;2022-08-21T06:38:59;22.58;;;20.35;;
22881;SDS011;11608;50.894;5.296;2022-08-21T06:41:25;21.25;;;19.55;;
22881;SDS011;11608;50.894;5.296;2022-08-21T06:43:52;21.38;;;19.58;;
22881;SDS011;11608;50.894;5.296;2022-08-21T06:46:18;22.77;;;20.67;;
22881;SDS011;11608;50.894;5.296;2022-08-21T06:48:44;21.23;;;19.48;;
22881;SDS011;11608;50.894;5.296;2022-08-21T06:51:10;24.10;;;21.80;;
22881;SDS011;11608;50.894;5.296;2022-08-21T06:53:36;22.08;;;20.25;;
22881;SDS011;11608;50.894;5.296;2022-08-21T06:56:02;21.67;;;20.02;;
22881;SDS011;11608;50.894;5.296;2022-08-21T06:58:28;21.63;;;19.65;;
22881;SDS011;11608;50.894;5.296;2022-08-21T07:00:55;22.45;;;20.58;;
22881;SDS011;11608;50.894;5.296;2022-08-21T07:03:23;20.98;;;19.23;;
22881;SDS011;11608;50.894;5.296;2022-08-21T07:05:49;21.35;;;19.73;;
22881;SDS011;11608;50.894;5.296;2022-08-21T07:08:16;21.10;;;19.60;;
22881;SDS011;11608;50.894;5.296;2022-08-21T07:10:42;21.85;;;19.83;;
22881;SDS011;11608;50.894;5.296;2022-08-21T07:13:08;20.45;;;18.80;;
22881;SDS011;11608;50.894;5.296;2022-08-21T07:15:34;20.48;;;18.90;;
22881;SDS011;11608;50.894;5.296;2022-08-21T07:18:00;21.73;;;19.60;;
22881;SDS011;11608;50.894;5.296;2022-08-21T07:20:27;20.98;;;19.42;;
22881;SDS011;11608;50.894;5.296;2022-08-21T07:22:53;20.88;;;19.17;;
22881;SDS011;11608;50.894;5.296;2022-08-21T07:25:19;21.02;;;19.30;;
22881;SDS011;11608;50.894;5.296;2022-08-21T07:27:45;20.05;;;18.45;;
22881;SDS011;11608;50.894;5.296;2022-08-21T07:30:11;20.20;;;18.60;;
22881;SDS011;11608;50.894;5.296;2022-08-21T07:32:37;21.25;;;19.23;;
22881;SDS011;11608;50.894;5.296;2022-08-21T07:35:04;20.15;;;18.75;;
22881;SDS011;11608;50.894;5.296;2022-08-21T07:37:30;21.13;;;19.25;;
22881;SDS011;11608;50.894;5.296;2022-08-21T07:39:56;20.50;;;19.00;;
22881;SDS011;11608;50.894;5.296;2022-08-21T07:42:22;20.08;;;18.63;;
22881;SDS011;11608;50.894;5.296;2022-08-21T07:44:48;20.83;;;19.02;;
22881;SDS011;11608;50.894;5.296;2022-08-21T07:47:14;20.27;;;18.55;;
22881;SDS011;11608;50.894;5.296;2022-08-21T07:49:40;20.60;;;18.80;;
22881;SDS011;11608;50.894;5.296;2022-08-21T07:52:06;19.75;;;18.25;;
22881;SDS011;11608;50.894;5.296;2022-08-21T07:54:32;20.25;;;18.50;;
22881;SDS011;11608;50.894;5.296;2022-08-21T07:56:58;21.63;;;19.30;;
22881;SDS011;11608;50.894;5.296;2022-08-21T07:59:27;21.20;;;19.60;;
22881;SDS011;11608;50.894;5.296;2022-08-21T08:01:53;21.00;;;19.17;;
22881;SDS011;11608;50.894;5.296;2022-08-21T08:04:19;19.55;;;18.17;;
22881;SDS011;11608;50.894;5.296;2022-08-21T08:06:46;20.77;;;18.88;;
22881;SDS011;11608;50.894;5.296;2022-08-21T08:09:12;20.83;;;19.17;;
22881;SDS011;11608;50.894;5.296;2022-08-21T08:11:38;21.08;;;19.48;;
22881;SDS011;11608;50.894;5.296;2022-08-21T08:14:13;20.60;;;18.88;;
22881;SDS011;11608;50.894;5.296;2022-08-21T08:16:40;20.08;;;18.55;;
22881;SDS011;11608;50.894;5.296;2022-08-21T08:19:06;21.00;;;19.05;;
22881;SDS011;11608;50.894;5.296;2022-08-21T08:21:32;20.38;;;18.80;;
22881;SDS011;11608;50.894;5.296;2022-08-21T08:23:58;20.98;;;19.15;;
22881;SDS011;11608;50.894;5.296;2022-08-21T08:26:24;19.85;;;18.48;;
22881;SDS011;11608;50.894;5.296;2022-08-21T08:28:50;19.33;;;17.92;;
22881;SDS011;11608;50.894;5.296;2022-08-21T08:31:16;20.23;;;18.70;;
22881;SDS011;11608;50.894;5.296;2022-08-21T08:33:42;20.67;;;19.10;;
22881;SDS011;11608;50.894;5.296;2022-08-21T08:36:16;19.95;;;18.48;;
22881;SDS011;11608;50.894;5.296;2022-08-21T08:38:50;21.02;;;19.45;;
22881;SDS011;11608;50.894;5.296;2022-08-21T08:41:19;21.17;;;19.58;;
22881;SDS011;11608;50.894;5.296;2022-08-21T08:43:52;20.80;;;19.20;;
22881;SDS011;11608;50.894;5.296;2022-08-21T08:46:24;20.83;;;18.95;;
22881;SDS011;11608;50.894;5.296;2022-08-21T08:48:57;19.50;;;18.00;;
22881;SDS011;11608;50.894;5.296;2022-08-21T08:53:55;19.52;;;18.02;;
22881;SDS011;11608;50.894;5.296;2022-08-21T08:56:29;19.50;;;17.90;;
22881;SDS011;11608;50.894;5.296;2022-08-21T08:58:56;18.88;;;17.38;;
22881;SDS011;11608;50.894;5.296;2022-08-21T09:01:24;19.08;;;17.77;;
22881;SDS011;11608;50.894;5.296;2022-08-21T09:03:52;20.33;;;18.83;;
22881;SDS011;11608;50.894;5.296;2022-08-21T09:06:21;20.35;;;18.65;;
22881;SDS011;11608;50.894;5.296;2022-08-21T09:11:26;20.23;;;18.77;;
22881;SDS011;11608;50.894;5.296;2022-08-21T09:19:11;20.48;;;18.77;;
22881;SDS011;11608;50.894;5.296;2022-08-21T09:29:28;20.55;;;18.95;;
22881;SDS011;11608;50.894;5.296;2022-08-21T09:31:55;21.38;;;19.65;;
22881;SDS011;11608;50.894;5.296;2022-08-21T09:34:29;20.90;;;19.10;;
22881;SDS011;11608;50.894;5.296;2022-08-21T09:36:56;20.95;;;19.35;;
22881;SDS011;11608;50.894;5.296;2022-08-21T09:39:32;20.95;;;19.00;;
22881;SDS011;11608;50.894;5.296;2022-08-21T09:42:04;20.33;;;18.90;;
22881;SDS011;11608;50.894;5.296;2022-08-21T09:44:32;21.85;;;19.90;;
22881;SDS011;11608;50.894;5.296;2022-08-21T09:47:01;20.52;;;18.98;;
22881;SDS011;11608;50.894;5.296;2022-08-21T09:49:28;19.88;;;18.55;;
22881;SDS011;11608;50.894;5.296;2022-08-21T09:51:54;20.77;;;19.25;;
22881;SDS011;11608;50.894;5.296;2022-08-21T09:54:20;20.40;;;19.00;;
22881;SDS011;11608;50.894;5.296;2022-08-21T09:57:00;19.95;;;18.48;;
22881;SDS011;11608;50.894;5.296;2022-08-21T09:59:49;22.27;;;20.30;;
22881;SDS011;11608;50.894;5.296;2022-08-21T10:04:51;20.58;;;19.17;;
22881;SDS011;11608;50.894;5.296;2022-08-21T10:07:19;21.02;;;19.50;;
22881;SDS011;11608;50.894;5.296;2022-08-21T10:09:57;20.50;;;19.00;;
22881;SDS011;11608;50.894;5.296;2022-08-21T10:12:25;19.65;;;18.00;;
22881;SDS011;11608;50.894;5.296;2022-08-21T10:22:34;20.45;;;18.85;;
22881;SDS011;11608;50.894;5.296;2022-08-21T10:27:56;20.65;;;19.05;;
22881;SDS011;11608;50.894;5.296;2022-08-21T10:30:51;20.35;;;18.65;;
22881;SDS011;11608;50.894;5.296;2022-08-21T10:40:42;19.80;;;18.20;;
22881;SDS011;11608;50.894;5.296;2022-08-21T10:46:01;19.40;;;17.88;;
22881;SDS011;11608;50.894;5.296;2022-08-21T10:48:30;19.67;;;18.17;;
22881;SDS011;11608;50.894;5.296;2022-08-21T10:56:11;19.70;;;18.33;;
22881;SDS011;11608;50.894;5.296;2022-08-21T10:58:40;19.08;;;17.52;;
22881;SDS011;11608;50.894;5.296;2022-08-21T11:01:15;19.55;;;17.95;;
22881;SDS011;11608;50.894;5.296;2022-08-21T11:03:47;20.52;;;18.92;;
22881;SDS011;11608;50.894;5.296;2022-08-21T11:06:27;20.25;;;18.58;;
22881;SDS011;11608;50.894;5.296;2022-08-21T11:08:57;20.88;;;19.02;;
22881;SDS011;11608;50.894;5.296;2022-08-21T11:11:29;20.55;;;18.95;;
22881;SDS011;11608;50.894;5.296;2022-08-21T11:14:11;21.45;;;19.52;;
22881;SDS011;11608;50.894;5.296;2022-08-21T11:16:43;20.10;;;18.38;;
22881;SDS011;11608;50.894;5.296;2022-08-21T11:19:19;19.27;;;17.75;;
22881;SDS011;11608;50.894;5.296;2022-08-21T11:21:57;19.38;;;17.88;;
22881;SDS011;11608;50.894;5.296;2022-08-21T11:29:40;20.33;;;18.55;;
22881;SDS011;11608;50.894;5.296;2022-08-21T11:32:13;19.05;;;17.45;;
22881;SDS011;11608;50.894;5.296;2022-08-21T11:40:06;21.23;;;19.63;;
22881;SDS011;11608;50.894;5.296;2022-08-21T11:42:46;22.15;;;20.20;;
22881;SDS011;11608;50.894;5.296;2022-08-21T11:45:25;21.50;;;19.60;;
22881;SDS011;11608;50.894;5.296;2022-08-21T11:50:38;20.30;;;18.40;;
22881;SDS011;11608;50.894;5.296;2022-08-21T11:53:10;20.58;;;18.80;;
22881;SDS011;11608;50.894;5.296;2022-08-21T11:55:44;19.70;;;18.13;;
22881;SDS011;11608;50.894;5.296;2022-08-21T12:00:40;20.48;;;18.67;;
22881;SDS011;11608;50.894;5.296;2022-08-21T12:03:11;21.98;;;20.13;;
22881;SDS011;11608;50.894;5.296;2022-08-21T12:05:51;20.85;;;18.98;;
22881;SDS011;11608;50.894;5.296;2022-08-21T12:11:05;21.08;;;19.27;;
22881;SDS011;11608;50.894;5.296;2022-08-21T12:13:33;20.58;;;18.90;;
22881;SDS011;11608;50.894;5.296;2022-08-21T12:16:13;20.17;;;18.30;;
22881;SDS011;11608;50.894;5.296;2022-08-21T12:18:40;20.33;;;18.63;;
22881;SDS011;11608;50.894;5.296;2022-08-21T12:21:26;20.80;;;18.90;;
22881;SDS011;11608;50.894;5.296;2022-08-21T12:24:15;19.85;;;18.25;;
22881;SDS011;11608;50.894;5.296;2022-08-21T12:26:51;19.50;;;17.90;;
22881;SDS011;11608;50.894;5.296;2022-08-21T12:31:49;21.40;;;19.38;;
22881;SDS011;11608;50.894;5.296;2022-08-21T12:34:16;19.98;;;18.27;;
22881;SDS011;11608;50.894;5.296;2022-08-21T12:36:48;20.65;;;18.90;;
22881;SDS011;11608;50.894;5.296;2022-08-21T12:39:17;20.55;;;18.45;;
22881;SDS011;11608;50.894;5.296;2022-08-21T12:41:48;19.33;;;17.83;;
22881;SDS011;11608;50.894;5.296;2022-08-21T12:44:20;20.52;;;18.73;;
22881;SDS011;11608;50.894;5.296;2022-08-21T12:46:51;20.75;;;18.92;;
22881;SDS011;11608;50.894;5.296;2022-08-21T12:49:27;19.73;;;18.13;;
22881;SDS011;11608;50.894;5.296;2022-08-21T12:52:00;20.02;;;18.27;;
22881;SDS011;11608;50.894;5.296;2022-08-21T12:54:31;21.45;;;19.63;;
22881;SDS011;11608;50.894;5.296;2022-08-21T12:57:03;21.30;;;19.50;;
22881;SDS011;11608;50.894;5.296;2022-08-21T12:59:30;20.60;;;18.83;;
22881;SDS011;11608;50.894;5.296;2022-08-21T13:01:56;20.52;;;18.45;;
22881;SDS011;11608;50.894;5.296;2022-08-21T13:04:44;20.77;;;19.00;;
22881;SDS011;11608;50.894;5.296;2022-08-21T13:07:10;20.95;;;18.70;;
22881;SDS011;11608;50.894;5.296;2022-08-21T13:09:47;21.20;;;19.40;;
22881;SDS011;11608;50.894;5.296;2022-08-21T13:12:14;20.95;;;19.38;;
22881;SDS011;11608;50.894;5.296;2022-08-21T13:14:41;19.85;;;18.35;;
22881;SDS011;11608;50.894;5.296;2022-08-21T13:17:09;20.85;;;18.85;;
22881;SDS011;11608;50.894;5.296;2022-08-21T13:19:35;20.40;;;18.90;;
22881;SDS011;11608;50.894;5.296;2022-08-21T13:22:02;20.88;;;19.33;;
22881;SDS011;11608;50.894;5.296;2022-08-21T13:24:32;21.17;;;19.48;;
22881;SDS011;11608;50.894;5.296;2022-08-21T13:26:59;19.80;;;18.40;;
22881;SDS011;11608;50.894;5.296;2022-08-21T13:29:29;20.13;;;18.42;;
22881;SDS011;11608;50.894;5.296;2022-08-21T13:31:57;20.88;;;18.92;;
22881;SDS011;11608;50.894;5.296;2022-08-21T13:34:24;21.30;;;19.42;;
22881;SDS011;11608;50.894;5.296;2022-08-21T13:36:51;20.27;;;18.52;;
22881;SDS011;11608;50.894;5.296;2022-08-21T13:39:18;20.30;;;18.80;;
22881;SDS011;11608;50.894;5.296;2022-08-21T13:41:48;20.40;;;18.80;;
22881;SDS011;11608;50.894;5.296;2022-08-21T13:44:19;20.27;;;18.65;;
22881;SDS011;11608;50.894;5.296;2022-08-21T13:46:47;19.98;;;18.50;;
22881;SDS011;11608;50.894;5.296;2022-08-21T13:49:15;20.58;;;18.77;;
22881;SDS011;11608;50.894;5.296;2022-08-21T13:51:41;20.85;;;18.95;;
22881;SDS011;11608;50.894;5.296;2022-08-21T13:54:29;20.30;;;18.60;;
22881;SDS011;11608;50.894;5.296;2022-08-21T13:56:55;21.05;;;19.25;;
22881;SDS011;11608;50.894;5.296;2022-08-21T13:59:29;20.00;;;18.55;;
22881;SDS011;11608;50.894;5.296;2022-08-21T14:01:57;21.55;;;19.63;;
22881;SDS011;11608;50.894;5.296;2022-08-21T14:06:50;20.60;;;18.80;;
22881;SDS011;11608;50.894;5.296;2022-08-21T14:11:49;20.90;;;19.10;;
22881;SDS011;11608;50.894;5.296;2022-08-21T14:14:33;20.48;;;18.77;;
22881;SDS011;11608;50.894;5.296;2022-08-21T14:17:01;20.30;;;18.48;;
22881;SDS011;11608;50.894;5.296;2022-08-21T14:22:36;19.13;;;17.67;;
22881;SDS011;11608;50.894;5.296;2022-08-21T14:25:06;19.35;;;17.83;;
22881;SDS011;11608;50.894;5.296;2022-08-21T14:27:34;19.63;;;17.70;;
22881;SDS011;11608;50.894;5.296;2022-08-21T14:30:04;20.70;;;18.75;;
22881;SDS011;11608;50.894;5.296;2022-08-21T14:32:38;19.63;;;18.17;;
22881;SDS011;11608;50.894;5.296;2022-08-21T14:35:05;20.40;;;18.70;;
22881;SDS011;11608;50.894;5.296;2022-08-21T14:37:31;20.08;;;18.25;;
22881;SDS011;11608;50.894;5.296;2022-08-21T14:39:57;20.15;;;18.40;;
22881;SDS011;11608;50.894;5.296;2022-08-21T14:42:24;20.33;;;18.23;;
22881;SDS011;11608;50.894;5.296;2022-08-21T14:44:50;19.38;;;17.75;;
22881;SDS011;11608;50.894;5.296;2022-08-21T14:47:16;19.48;;;17.92;;
22881;SDS011;11608;50.894;5.296;2022-08-21T14:49:42;19.38;;;17.73;;
22881;SDS011;11608;50.894;5.296;2022-08-21T14:52:08;19.70;;;17.92;;
22881;SDS011;11608;50.894;5.296;2022-08-21T14:54:34;19.70;;;17.90;;
22881;SDS011;11608;50.894;5.296;2022-08-21T14:57:02;19.17;;;17.67;;
22881;SDS011;11608;50.894;5.296;2022-08-21T14:59:29;19.33;;;17.80;;
22881;SDS011;11608;50.894;5.296;2022-08-21T15:01:57;19.88;;;18.27;;
22881;SDS011;11608;50.894;5.296;2022-08-21T15:04:23;20.27;;;18.48;;
22881;SDS011;11608;50.894;5.296;2022-08-21T15:06:49;20.70;;;18.92;;
22881;SDS011;11608;50.894;5.296;2022-08-21T15:09:15;20.60;;;18.70;;
22881;SDS011;11608;50.894;5.296;2022-08-21T15:11:41;20.25;;;18.48;;
22881;SDS011;11608;50.894;5.296;2022-08-21T15:14:08;19.70;;;17.95;;
22881;SDS011;11608;50.894;5.296;2022-08-21T15:16:37;24.83;;;19.20;;
22881;SDS011;11608;50.894;5.296;2022-08-21T15:19:03;19.90;;;18.30;;
22881;SDS011;11608;50.894;5.296;2022-08-21T15:21:29;21.50;;;19.73;;
22881;SDS011;11608;50.894;5.296;2022-08-21T15:23:55;20.23;;;18.55;;
22881;SDS011;11608;50.894;5.296;2022-08-21T15:26:21;21.90;;;19.88;;
22881;SDS011;11608;50.894;5.296;2022-08-21T15:28:48;21.67;;;19.75;;
22881;SDS011;11608;50.894;5.296;2022-08-21T15:31:14;20.75;;;19.13;;
22881;SDS011;11608;50.894;5.296;2022-08-21T15:33:40;20.98;;;19.17;;
22881;SDS011;11608;50.894;5.296;2022-08-21T15:36:06;20.42;;;18.77;;
22881;SDS011;11608;50.894;5.296;2022-08-21T15:38:32;19.85;;;18.05;;
22881;SDS011;11608;50.894;5.296;2022-08-21T15:40:58;19.83;;;17.92;;
22881;SDS011;11608;50.894;5.296;2022-08-21T15:43:25;19.98;;;18.30;;
22881;SDS011;11608;50.894;5.296;2022-08-21T15:45:52;20.55;;;18.83;;
22881;SDS011;11608;50.894;5.296;2022-08-21T15:48:19;21.40;;;19.65;;